Time;durP1;ratioP1;P1;durP2;ratioP2;P2;SDS_P1;SDS_P2;PMS_P1;PMS_P2;Temp;Humidity;BMP_temperature;BMP_pressure;BME280_temperature;BME280_humidity;BME280_pressure;Samples;Min_cycle;Max_cycle;Signal;HPM_P1;HPM_P2
2021/07/08 00:00:48;;;;;;;16.60;10.95;;;;;;;;;;5013551;28;20368;-74
2021/07/08 00:03:15;;;;;;;10.55;9.55;;;;;;;;;;5021213;28;20026;-75
2021/07/08 00:05:42;;;;;;;10.10;9.10;;;;;;;;;;5014165;28;20030;-75
2021/07/08 00:08:08;;;;;;;10.77;9.73;;;;;;;;;;5014941;28;20022;-75
2021/07/08 00:10:37;;;;;;;8.68;7.88;;;;;;;;;;5016938;28;20095;-75
2021/07/08 00:13:04;;;;;;;12.32;9.27;;;;;;;;;;5017091;28;20084;-75
2021/07/08 00:15:31;;;;;;;8.82;7.93;;;;;;;;;;5017818;28;20125;-76
2021/07/08 00:17:58;;;;;;;9.02;8.00;;;;;;;;;;5038157;28;20030;-76
2021/07/08 00:20:25;;;;;;;9.25;8.35;;;;;;;;;;5020359;28;20038;-74
2021/07/08 00:22:51;;;;;;;9.40;8.35;;;;;;;;;;5017983;28;20482;-74
2021/07/08 00:25:19;;;;;;;9.43;8.50;;;;;;;;;;5017349;28;20080;-74
2021/07/08 00:27:45;;;;;;;9.10;8.23;;;;;;;;;;5016944;28;20029;-75
2021/07/08 00:30:11;;;;;;;8.90;8.10;;;;;;;;;;5016267;28;20499;-76
2021/07/08 00:32:40;;;;;;;10.70;8.55;;;;;;;;;;5016433;28;20106;-74
2021/07/08 00:35:06;;;;;;;8.65;7.85;;;;;;;;;;5006545;28;20022;-76
2021/07/08 00:37:32;;;;;;;8.70;7.82;;;;;;;;;;5016392;28;20030;-74
2021/07/08 00:39:58;;;;;;;10.40;8.00;;;;;;;;;;5015757;28;20030;-74
2021/07/08 00:42:24;;;;;;;9.20;8.27;;;;;;;;;;5015804;28;20105;-74
2021/07/08 00:44:51;;;;;;;8.30;7.47;;;;;;;;;;5016534;28;20046;-74
2021/07/08 00:47:17;;;;;;;8.90;8.00;;;;;;;;;;4998210;28;20048;-75
2021/07/08 00:49:43;;;;;;;7.85;7.13;;;;;;;;;;5015610;28;20018;-74
2021/07/08 00:52:09;;;;;;;7.38;6.55;;;;;;;;;;5015843;28;20093;-75
2021/07/08 00:54:35;;;;;;;6.20;5.70;;;;;;;;;;5015912;28;20025;-75
2021/07/08 00:57:03;;;;;;;5.97;5.47;;;;;;;;;;5015498;28;20578;-75
2021/07/08 00:59:29;;;;;;;6.50;6.00;;;;;;;;;;5015819;28;20053;-75
2021/07/08 01:01:57;;;;;;;5.78;5.28;;;;;;;;;;5015413;28;20026;-76
2021/07/08 01:04:23;;;;;;;6.57;5.32;;;;;;;;;;5026818;28;20032;-75
2021/07/08 01:06:49;;;;;;;7.43;6.72;;;;;;;;;;5028872;28;20495;-75
2021/07/08 01:09:15;;;;;;;7.45;6.78;;;;;;;;;;5015576;28;20072;-75
2021/07/08 01:11:44;;;;;;;8.07;6.45;;;;;;;;;;4997862;28;20180;-75
2021/07/08 01:14:10;;;;;;;5.95;5.10;;;;;;;;;;5015406;28;20104;-75
2021/07/08 01:16:36;;;;;;;8.00;6.28;;;;;;;;;;5015125;28;20030;-75
2021/07/08 01:19:03;;;;;;;8.20;6.22;;;;;;;;;;5014512;28;20411;-75
2021/07/08 01:21:30;;;;;;;6.85;6.15;;;;;;;;;;5014774;28;20085;-75
2021/07/08 01:23:57;;;;;;;8.27;7.47;;;;;;;;;;5015323;28;20033;-75
2021/07/08 01:26:23;;;;;;;8.85;6.95;;;;;;;;;;5015703;28;20379;-74
2021/07/08 01:28:53;;;;;;;7.70;7.00;;;;;;;;;;5014863;28;20018;-75
2021/07/08 01:31:19;;;;;;;8.65;6.70;;;;;;;;;;5015144;28;20030;-75
2021/07/08 01:33:46;;;;;;;8.27;6.25;;;;;;;;;;5022219;28;20025;-75
2021/07/08 01:36:13;;;;;;;7.07;5.68;;;;;;;;;;5015880;28;20052;-75
2021/07/08 01:38:39;;;;;;;6.63;5.95;;;;;;;;;;5014357;28;20022;-75
2021/07/08 01:41:05;;;;;;;5.85;5.00;;;;;;;;;;5015289;28;20037;-76
2021/07/08 01:43:37;;;;;;;6.53;5.93;;;;;;;;;;5015028;28;20060;-76
2021/07/08 01:46:04;;;;;;;5.82;5.32;;;;;;;;;;5014743;28;20022;-75
2021/07/08 01:48:30;;;;;;;8.05;5.93;;;;;;;;;;5014588;28;20033;-75
2021/07/08 01:50:56;;;;;;;5.30;4.90;;;;;;;;;;5014511;28;20022;-74
2021/07/08 01:53:23;;;;;;;4.45;4.05;;;;;;;;;;5014798;28;20061;-75
2021/07/08 01:55:49;;;;;;;4.22;3.83;;;;;;;;;;4996803;28;20026;-75
2021/07/08 01:58:15;;;;;;;7.88;4.97;;;;;;;;;;4997066;28;20034;-76
2021/07/08 02:00:41;;;;;;;4.90;4.43;;;;;;;;;;4996818;28;20025;-73
2021/07/08 02:03:07;;;;;;;4.22;3.83;;;;;;;;;;5022480;28;20132;-75
2021/07/08 02:05:33;;;;;;;5.28;4.75;;;;;;;;;;5020359;28;20030;-76
2021/07/08 02:07:59;;;;;;;4.13;3.78;;;;;;;;;;5014437;28;20033;-76
2021/07/08 02:10:25;;;;;;;4.72;4.25;;;;;;;;;;5013872;28;20105;-75
2021/07/08 02:12:51;;;;;;;3.97;3.58;;;;;;;;;;5014239;28;20024;-75
2021/07/08 02:15:17;;;;;;;3.30;3.00;;;;;;;;;;5013518;28;20313;-74
2021/07/08 02:17:43;;;;;;;3.53;3.10;;;;;;;;;;5014105;28;20105;-75
2021/07/08 02:20:13;;;;;;;3.60;3.30;;;;;;;;;;5014061;28;20026;-75
2021/07/08 02:22:39;;;;;;;3.42;3.00;;;;;;;;;;5013989;28;20029;-76
2021/07/08 02:25:06;;;;;;;3.22;3.03;;;;;;;;;;5014082;28;20092;-74
2021/07/08 02:27:32;;;;;;;3.20;2.80;;;;;;;;;;5013966;28;20030;-75
2021/07/08 02:29:58;;;;;;;2.80;2.60;;;;;;;;;;5013603;28;20061;-76
2021/07/08 02:32:25;;;;;;;2.60;2.40;;;;;;;;;;5000336;28;20026;-76
2021/07/08 02:34:52;;;;;;;3.13;2.92;;;;;;;;;;5026112;28;20049;-75
2021/07/08 02:37:18;;;;;;;3.22;3.03;;;;;;;;;;5019973;28;20567;-75
2021/07/08 02:39:44;;;;;;;2.40;2.22;;;;;;;;;;5013574;28;20489;-74
2021/07/08 02:42:10;;;;;;;2.78;2.58;;;;;;;;;;5013569;28;20030;-75
2021/07/08 02:44:36;;;;;;;3.17;2.88;;;;;;;;;;5013773;28;20088;-75
2021/07/08 02:47:02;;;;;;;2.92;2.72;;;;;;;;;;5013725;28;20125;-75
2021/07/08 02:49:29;;;;;;;2.42;2.28;;;;;;;;;;4995750;28;20032;-75
2021/07/08 02:51:55;;;;;;;2.25;2.15;;;;;;;;;;5013717;28;20072;-75
2021/07/08 02:54:21;;;;;;;2.53;2.33;;;;;;;;;;5013823;28;20368;-75
2021/07/08 02:56:47;;;;;;;3.92;2.10;;;;;;;;;;5013286;28;20087;-75
2021/07/08 02:59:13;;;;;;;3.45;2.70;;;;;;;;;;5013541;28;20128;-76
2021/07/08 03:01:39;;;;;;;2.38;2.17;;;;;;;;;;5012650;28;20475;-76
2021/07/08 03:04:05;;;;;;;3.17;2.30;;;;;;;;;;5022738;28;20061;-75
2021/07/08 03:06:32;;;;;;;3.13;2.90;;;;;;;;;;5015188;28;20486;-75
2021/07/08 03:08:58;;;;;;;2.65;2.45;;;;;;;;;;5014305;28;20030;-75
2021/07/08 03:11:24;;;;;;;2.70;2.50;;;;;;;;;;5013668;28;20053;-75
2021/07/08 03:13:51;;;;;;;3.25;2.97;;;;;;;;;;5013679;28;20049;-75
2021/07/08 03:16:17;;;;;;;3.10;2.90;;;;;;;;;;5012955;28;20060;-75
2021/07/08 03:18:43;;;;;;;2.60;2.40;;;;;;;;;;5012904;28;20034;-75
2021/07/08 03:21:09;;;;;;;2.92;2.70;;;;;;;;;;5013305;28;20045;-76
2021/07/08 03:23:35;;;;;;;2.63;2.42;;;;;;;;;;5013061;28;20028;-75
2021/07/08 03:26:02;;;;;;;2.53;2.33;;;;;;;;;;5012681;28;20021;-75
2021/07/08 03:28:28;;;;;;;2.65;2.30;;;;;;;;;;5013108;28;20306;-76
2021/07/08 03:30:54;;;;;;;3.08;2.78;;;;;;;;;;5013635;28;20022;-75
2021/07/08 03:33:20;;;;;;;3.05;2.60;;;;;;;;;;5021534;28;20076;-76
2021/07/08 03:35:46;;;;;;;3.35;2.95;;;;;;;;;;5028373;28;20036;-75
2021/07/08 03:38:12;;;;;;;3.63;3.38;;;;;;;;;;5028834;28;20038;-74
2021/07/08 03:40:38;;;;;;;2.80;2.55;;;;;;;;;;5012802;28;20034;-75
2021/07/08 03:43:04;;;;;;;2.95;2.60;;;;;;;;;;5014487;28;20033;-76
2021/07/08 03:45:31;;;;;;;2.80;2.60;;;;;;;;;;5017275;28;20026;-76
2021/07/08 03:47:58;;;;;;;1.95;1.83;;;;;;;;;;5017334;28;20092;-76
2021/07/08 03:50:24;;;;;;;2.03;1.92;;;;;;;;;;5016728;28;20026;-75
2021/07/08 03:52:50;;;;;;;4.20;2.40;;;;;;;;;;5017090;28;20105;-75
2021/07/08 03:55:18;;;;;;;2.60;2.40;;;;;;;;;;5016910;28;20024;-75
2021/07/08 03:57:53;;;;;;;4.00;2.40;;;;;;;;;;5017257;28;20018;-74
2021/07/08 04:00:21;;;;;;;2.85;2.45;;;;;;;;;;5016211;28;20116;-74
2021/07/08 04:02:47;;;;;;;3.33;2.40;;;;;;;;;;5024459;28;20053;-75
2021/07/08 04:05:13;;;;;;;3.40;3.08;;;;;;;;;;5028878;28;20379;-75
2021/07/08 04:07:40;;;;;;;4.65;2.80;;;;;;;;;;5036282;28;20025;-75
2021/07/08 04:10:06;;;;;;;3.45;2.35;;;;;;;;;;5025734;28;20033;-76
2021/07/08 04:12:32;;;;;;;2.38;2.17;;;;;;;;;;5016417;28;20034;-74
2021/07/08 04:14:58;;;;;;;3.80;2.10;;;;;;;;;;5017285;28;20479;-75
2021/07/08 04:17:24;;;;;;;1.85;1.75;;;;;;;;;;5016212;28;20115;-75
2021/07/08 04:19:50;;;;;;;1.92;1.83;;;;;;;;;;5015891;28;20048;-75
2021/07/08 04:22:16;;;;;;;2.17;2.08;;;;;;;;;;5014395;28;20030;-75
2021/07/08 04:24:42;;;;;;;5.72;3.17;;;;;;;;;;5015773;28;20034;-75
2021/07/08 04:27:08;;;;;;;2.88;2.67;;;;;;;;;;5015715;28;20026;-76
2021/07/08 04:29:35;;;;;;;4.93;2.45;;;;;;;;;;5016017;28;20108;-76
2021/07/08 04:32:01;;;;;;;3.20;3.00;;;;;;;;;;5015523;28;20018;-75
2021/07/08 04:34:27;;;;;;;2.88;2.67;;;;;;;;;;5023529;28;20025;-75
2021/07/08 04:36:53;;;;;;;2.85;2.63;;;;;;;;;;5015818;28;20038;-76
2021/07/08 04:39:19;;;;;;;4.40;2.83;;;;;;;;;;5015155;28;20025;-75
2021/07/08 04:41:47;;;;;;;2.33;2.13;;;;;;;;;;5003226;28;20042;-75
2021/07/08 04:44:13;;;;;;;4.32;3.15;;;;;;;;;;5015555;28;20093;-75
2021/07/08 04:46:39;;;;;;;2.80;2.58;;;;;;;;;;5022135;28;20060;-75
2021/07/08 04:49:06;;;;;;;2.50;2.08;;;;;;;;;;5020717;28;20030;-75
2021/07/08 04:51:32;;;;;;;3.08;2.78;;;;;;;;;;5016593;28;20033;-76
2021/07/08 04:53:58;;;;;;;2.65;2.45;;;;;;;;;;5015973;28;20037;-77
2021/07/08 04:56:24;;;;;;;3.75;2.97;;;;;;;;;;5015133;28;20042;-75
2021/07/08 04:58:50;;;;;;;2.92;2.67;;;;;;;;;;5016220;28;20088;-76
2021/07/08 05:01:16;;;;;;;2.97;2.78;;;;;;;;;;5015208;28;20034;-75
2021/07/08 05:03:42;;;;;;;2.95;2.33;;;;;;;;;;5021234;28;20189;-74
2021/07/08 05:06:08;;;;;;;5.05;3.05;;;;;;;;;;5033622;28;20277;-75
2021/07/08 05:08:34;;;;;;;3.45;3.03;;;;;;;;;;5024487;28;20038;-76
2021/07/08 05:11:00;;;;;;;4.20;3.22;;;;;;;;;;4998896;28;20057;-75
2021/07/08 05:13:26;;;;;;;3.35;3.05;;;;;;;;;;5015873;28;20076;-76
2021/07/08 05:15:52;;;;;;;3.75;3.45;;;;;;;;;;5016379;28;20153;-75
2021/07/08 05:18:19;;;;;;;9.68;5.00;;;;;;;;;;5015955;28;20053;-77
2021/07/08 05:20:45;;;;;;;5.88;5.05;;;;;;;;;;4998219;28;20030;-76
2021/07/08 05:23:17;;;;;;;5.97;4.32;;;;;;;;;;5015581;28;20121;-76
2021/07/08 05:25:43;;;;;;;4.90;4.38;;;;;;;;;;5015618;28;20025;-75
2021/07/08 05:28:10;;;;;;;4.70;4.30;;;;;;;;;;5016083;28;20065;-75
2021/07/08 05:30:36;;;;;;;5.18;4.78;;;;;;;;;;5015960;28;20022;-74
2021/07/08 05:33:02;;;;;;;4.20;3.90;;;;;;;;;;5017288;28;20039;-76
2021/07/08 05:35:28;;;;;;;4.15;3.78;;;;;;;;;;5022380;28;20447;-75
2021/07/08 05:37:54;;;;;;;5.38;4.93;;;;;;;;;;5015570;28;20140;-75
2021/07/08 05:40:20;;;;;;;5.70;4.55;;;;;;;;;;4997506;28;20034;-76
2021/07/08 05:42:47;;;;;;;4.18;3.88;;;;;;;;;;5015333;28;20034;-76
2021/07/08 05:45:13;;;;;;;4.00;3.70;;;;;;;;;;5015106;28;20033;-75
2021/07/08 05:47:39;;;;;;;5.10;4.57;;;;;;;;;;4997418;28;20485;-75
2021/07/08 05:50:05;;;;;;;5.28;4.78;;;;;;;;;;5014448;28;20034;-76
2021/07/08 05:52:31;;;;;;;6.10;5.50;;;;;;;;;;5012795;28;20025;-76
2021/07/08 05:54:57;;;;;;;5.20;4.80;;;;;;;;;;5015473;28;20527;-75
2021/07/08 05:57:23;;;;;;;5.25;4.80;;;;;;;;;;5014695;28;20121;-76
2021/07/08 05:59:49;;;;;;;9.32;6.53;;;;;;;;;;5013444;28;20040;-75
2021/07/08 06:02:15;;;;;;;8.00;5.70;;;;;;;;;;5017866;28;20026;-74
2021/07/08 06:04:42;;;;;;;6.97;5.78;;;;;;;;;;5025799;28;20191;-76
2021/07/08 06:07:08;;;;;;;6.60;6.00;;;;;;;;;;5006292;28;20030;-77
2021/07/08 06:09:34;;;;;;;5.93;5.32;;;;;;;;;;5014613;28;20018;-76
2021/07/08 06:12:00;;;;;;;5.10;4.70;;;;;;;;;;5015006;28;20498;-76
2021/07/08 06:14:26;;;;;;;6.93;6.30;;;;;;;;;;4997152;28;20470;-76
2021/07/08 06:16:53;;;;;;;9.15;6.57;;;;;;;;;;5014734;28;20048;-75
2021/07/08 06:19:19;;;;;;;8.35;7.65;;;;;;;;;;5013405;28;20042;-76
2021/07/08 06:21:45;;;;;;;13.38;8.30;;;;;;;;;;5014156;28;20044;-76
2021/07/08 06:24:11;;;;;;;8.73;7.93;;;;;;;;;;5014296;28;20030;-75
2021/07/08 06:26:37;;;;;;;9.20;5.78;;;;;;;;;;5014515;28;20022;-75
2021/07/08 06:29:03;;;;;;;6.90;6.20;;;;;;;;;;5015282;28;20022;-75
2021/07/08 06:31:29;;;;;;;8.25;7.40;;;;;;;;;;5014216;28;20114;-75
2021/07/08 06:33:55;;;;;;;8.80;7.82;;;;;;;;;;5022058;28;20799;-76
2021/07/08 06:36:21;;;;;;;9.27;8.15;;;;;;;;;;5013699;28;20030;-75
2021/07/08 06:38:47;;;;;;;15.10;10.82;;;;;;;;;;5013668;28;20033;-77
2021/07/08 06:41:13;;;;;;;11.73;9.05;;;;;;;;;;5013425;28;20029;-75
2021/07/08 06:43:39;;;;;;;11.30;9.20;;;;;;;;;;5014432;28;20033;-75
2021/07/08 06:46:07;;;;;;;10.15;9.23;;;;;;;;;;5013566;28;20030;-76
2021/07/08 06:48:33;;;;;;;8.98;8.07;;;;;;;;;;5013659;28;20037;-76
2021/07/08 06:50:59;;;;;;;11.88;10.55;;;;;;;;;;5013704;28;20053;-76
2021/07/08 06:53:25;;;;;;;12.35;10.25;;;;;;;;;;5014156;28;20501;-74
2021/07/08 06:55:51;;;;;;;11.20;10.18;;;;;;;;;;5012960;28;20034;-76
2021/07/08 06:58:17;;;;;;;9.82;8.82;;;;;;;;;;5013864;28;20107;-75
2021/07/08 07:00:43;;;;;;;11.35;10.15;;;;;;;;;;4996477;28;20033;-76
2021/07/08 07:03:09;;;;;;;11.25;10.15;;;;;;;;;;5024007;28;20071;-76
2021/07/08 07:05:36;;;;;;;10.68;9.65;;;;;;;;;;5018977;28;20038;-76
2021/07/08 07:08:02;;;;;;;12.43;11.23;;;;;;;;;;5013280;28;20026;-75
2021/07/08 07:10:29;;;;;;;11.55;10.32;;;;;;;;;;5014332;28;20097;-75
2021/07/08 07:12:56;;;;;;;14.30;12.55;;;;;;;;;;5013636;28;20030;-75
2021/07/08 07:15:23;;;;;;;11.38;10.27;;;;;;;;;;5013928;28;20040;-75
2021/07/08 07:17:49;;;;;;;10.65;9.63;;;;;;;;;;5014302;28;20475;-76
2021/07/08 07:20:17;;;;;;;11.98;10.88;;;;;;;;;;5014111;28;20387;-75
2021/07/08 07:22:47;;;;;;;10.18;8.93;;;;;;;;;;5013064;28;20026;-75
2021/07/08 07:25:24;;;;;;;14.02;12.48;;;;;;;;;;5014319;28;20151;-76
2021/07/08 07:27:51;;;;;;;10.55;9.55;;;;;;;;;;5013151;28;20033;-76
2021/07/08 07:30:20;;;;;;;10.23;9.23;;;;;;;;;;5013716;28;20018;-75
2021/07/08 07:32:46;;;;;;;14.48;12.93;;;;;;;;;;5017631;28;20033;-76
2021/07/08 07:35:12;;;;;;;14.55;12.38;;;;;;;;;;5021201;28;20024;-77
2021/07/08 07:37:39;;;;;;;15.88;14.30;;;;;;;;;;5012902;28;20029;-74
2021/07/08 07:40:05;;;;;;;15.13;13.63;;;;;;;;;;5005111;28;20109;-75
2021/07/08 07:42:33;;;;;;;20.77;17.67;;;;;;;;;;4994257;28;20030;-75
2021/07/08 07:44:59;;;;;;;16.50;13.10;;;;;;;;;;5009427;28;20030;-76
2021/07/08 07:47:28;;;;;;;15.27;13.77;;;;;;;;;;5012771;28;20026;-76
2021/07/08 07:49:54;;;;;;;15.00;13.10;;;;;;;;;;5012772;28;20022;-76
2021/07/08 07:52:20;;;;;;;20.20;16.85;;;;;;;;;;5012684;28;20034;-75
2021/07/08 07:54:46;;;;;;;18.13;16.23;;;;;;;;;;5012263;28;20420;-75
2021/07/08 07:57:12;;;;;;;21.73;19.33;;;;;;;;;;5013203;28;20069;-76
2021/07/08 07:59:39;;;;;;;23.40;21.02;;;;;;;;;;5012777;28;20034;-76
2021/07/08 08:02:10;;;;;;;20.45;18.00;;;;;;;;;;5014408;28;20034;-76
2021/07/08 08:04:42;;;;;;;27.00;21.17;;;;;;;;;;5024464;28;20022;-75
2021/07/08 08:09:55;;;;;;;27.02;21.13;;;;;;;;;;4992012;28;19905;-75
2021/07/08 08:12:22;;;;;;;23.65;21.13;;;;;;;;;;5012966;28;20030;-75
2021/07/08 08:14:48;;;;;;;22.92;20.27;;;;;;;;;;5011929;28;20363;-76
2021/07/08 08:17:14;;;;;;;21.20;18.98;;;;;;;;;;5014015;28;20034;-76
2021/07/08 08:19:40;;;;;;;22.88;20.25;;;;;;;;;;5013761;28;20037;-76
2021/07/08 08:22:07;;;;;;;24.25;21.60;;;;;;;;;;5013963;28;20040;-76
2021/07/08 08:24:33;;;;;;;19.88;17.48;;;;;;;;;;5014260;28;20057;-77
2021/07/08 08:27:01;;;;;;;21.30;19.00;;;;;;;;;;5013727;28;20033;-76
2021/07/08 08:29:27;;;;;;;18.45;16.55;;;;;;;;;;4998200;28;20045;-76
2021/07/08 08:31:53;;;;;;;22.15;18.70;;;;;;;;;;5017701;28;20030;-77
2021/07/08 08:34:19;;;;;;;27.67;20.95;;;;;;;;;;5029837;28;20475;-76
2021/07/08 08:36:45;;;;;;;24.70;22.13;;;;;;;;;;5020338;28;20452;-76
2021/07/08 08:39:12;;;;;;;23.52;21.00;;;;;;;;;;5016838;28;20459;-76
2021/07/08 08:41:38;;;;;;;26.02;22.50;;;;;;;;;;5017726;28;20129;-75
2021/07/08 08:44:04;;;;;;;24.92;21.65;;;;;;;;;;5017168;28;20030;-75
2021/07/08 08:46:33;;;;;;;22.48;19.90;;;;;;;;;;4997220;28;20060;-76
2021/07/08 08:48:59;;;;;;;24.17;20.90;;;;;;;;;;5016358;28;20018;-76
2021/07/08 08:51:25;;;;;;;23.10;20.13;;;;;;;;;;5017435;28;20021;-76
2021/07/08 08:53:52;;;;;;;19.08;16.98;;;;;;;;;;5016926;28;20414;-78
2021/07/08 08:56:19;;;;;;;23.02;19.80;;;;;;;;;;5000363;28;20025;-76
2021/07/08 08:58:45;;;;;;;23.35;20.90;;;;;;;;;;4999445;28;20030;-75
2021/07/08 09:01:14;;;;;;;25.90;21.83;;;;;;;;;;5017700;28;20041;-76
2021/07/08 09:03:40;;;;;;;25.08;22.40;;;;;;;;;;5025034;28;20022;-76
2021/07/08 09:06:10;;;;;;;25.45;22.75;;;;;;;;;;5022657;28;20057;-75
2021/07/08 09:08:37;;;;;;;24.40;21.90;;;;;;;;;;5015593;28;20034;-76
2021/07/08 09:11:04;;;;;;;22.10;19.90;;;;;;;;;;5016329;28;20442;-76
2021/07/08 09:13:50;;;;;;;23.48;21.08;;;;;;;;;;5016344;28;20360;-76
2021/07/08 09:16:18;;;;;;;22.15;19.98;;;;;;;;;;4991499;28;20471;-76
2021/07/08 09:18:44;;;;;;;24.30;21.70;;;;;;;;;;4999273;28;20041;-77
2021/07/08 09:21:21;;;;;;;23.83;21.60;;;;;;;;;;5016819;28;20310;-77
2021/07/08 09:24:06;;;;;;;24.88;22.20;;;;;;;;;;5016180;28;20113;-76
2021/07/08 09:26:32;;;;;;;25.48;22.40;;;;;;;;;;4998154;28;20487;-76
2021/07/08 09:29:06;;;;;;;24.60;22.25;;;;;;;;;;5015214;28;20403;-76
2021/07/08 09:31:32;;;;;;;23.73;21.42;;;;;;;;;;5017351;28;20030;-76
2021/07/08 09:34:12;;;;;;;24.40;22.00;;;;;;;;;;5024862;28;20379;-77
2021/07/08 09:36:38;;;;;;;24.08;21.58;;;;;;;;;;5021308;28;20022;-76
2021/07/08 09:39:04;;;;;;;25.33;22.75;;;;;;;;;;4997329;28;20113;-76
2021/07/08 09:41:31;;;;;;;21.48;19.27;;;;;;;;;;5014992;28;20034;-77
2021/07/08 09:43:58;;;;;;;23.48;21.13;;;;;;;;;;5015818;28;20446;-77
2021/07/08 09:46:36;;;;;;;22.60;20.58;;;;;;;;;;5015870;28;20072;-76
2021/07/08 09:49:07;;;;;;;20.95;18.83;;;;;;;;;;5015021;28;20495;-76
2021/07/08 09:51:34;;;;;;;23.90;21.38;;;;;;;;;;5015416;28;20055;-76
2021/07/08 09:54:12;;;;;;;20.15;18.10;;;;;;;;;;5015414;28;20030;-76
2021/07/08 09:56:44;;;;;;;16.85;15.25;;;;;;;;;;5015624;28;20021;-76
2021/07/08 09:59:11;;;;;;;15.00;13.60;;;;;;;;;;5013919;28;20089;-76
2021/07/08 10:01:37;;;;;;;18.67;16.98;;;;;;;;;;5014626;28;20109;-76
2021/07/08 10:04:03;;;;;;;19.52;16.38;;;;;;;;;;5026055;28;20064;-77
2021/07/08 10:06:31;;;;;;;19.17;16.90;;;;;;;;;;5014288;28;20394;-77
2021/07/08 10:08:58;;;;;;;17.83;15.50;;;;;;;;;;5015219;28;20042;-76
2021/07/08 10:11:25;;;;;;;14.75;13.35;;;;;;;;;;4997124;28;20030;-77
2021/07/08 10:13:51;;;;;;;16.23;14.82;;;;;;;;;;5014284;28;20037;-77
2021/07/08 10:16:18;;;;;;;17.45;15.85;;;;;;;;;;5015428;28;20041;-76
2021/07/08 10:18:45;;;;;;;17.95;16.10;;;;;;;;;;5014732;28;20030;-76
2021/07/08 10:21:12;;;;;;;17.23;15.63;;;;;;;;;;5014667;28;20030;-76
2021/07/08 10:23:39;;;;;;;16.08;14.68;;;;;;;;;;5014521;28;20033;-77
2021/07/08 10:26:06;;;;;;;18.02;16.42;;;;;;;;;;5016040;28;20113;-77
2021/07/08 10:28:34;;;;;;;17.73;16.00;;;;;;;;;;5015630;28;20085;-76
2021/07/08 10:31:01;;;;;;;18.95;17.25;;;;;;;;;;5014871;28;20056;-75
2021/07/08 10:33:27;;;;;;;15.25;13.82;;;;;;;;;;5014227;28;20030;-76
2021/07/08 10:35:54;;;;;;;16.88;15.30;;;;;;;;;;5022167;28;20038;-75
2021/07/08 10:38:37;;;;;;;13.90;12.68;;;;;;;;;;5008278;28;20041;-76
2021/07/08 10:41:23;;;;;;;17.13;15.52;;;;;;;;;;5026710;28;20109;-75
2021/07/08 10:43:49;;;;;;;15.60;13.55;;;;;;;;;;5006658;28;20464;-76
2021/07/08 10:46:16;;;;;;;13.85;12.57;;;;;;;;;;5017712;28;20037;-76
2021/07/08 10:48:42;;;;;;;13.77;12.57;;;;;;;;;;5019370;28;20026;-75
2021/07/08 10:51:19;;;;;;;14.70;13.38;;;;;;;;;;5002825;28;20030;-76
2021/07/08 10:53:50;;;;;;;15.50;14.10;;;;;;;;;;5016931;28;20029;-76
2021/07/08 10:56:20;;;;;;;16.92;15.40;;;;;;;;;;4998274;28;20152;-76
2021/07/08 10:58:51;;;;;;;17.05;15.55;;;;;;;;;;5016661;28;20034;-77
2021/07/08 11:01:31;;;;;;;15.35;14.05;;;;;;;;;;5022277;28;20085;-75
2021/07/08 11:04:02;;;;;;;15.15;13.77;;;;;;;;;;5031637;28;20105;-76
2021/07/08 11:06:36;;;;;;;14.27;12.90;;;;;;;;;;5032224;28;20033;-76
2021/07/08 11:09:16;;;;;;;17.73;16.02;;;;;;;;;;5017201;28;20108;-77
2021/07/08 11:11:45;;;;;;;15.95;14.57;;;;;;;;;;5014894;28;20107;-78
2021/07/08 11:14:14;;;;;;;15.95;14.35;;;;;;;;;;4996121;28;20034;-75
2021/07/08 11:16:43;;;;;;;14.45;13.05;;;;;;;;;;5013263;28;20501;-76
2021/07/08 11:19:11;;;;;;;14.40;13.27;;;;;;;;;;5013189;28;20064;-75
2021/07/08 11:21:50;;;;;;;14.35;12.95;;;;;;;;;;5014625;28;20030;-76
2021/07/08 11:24:16;;;;;;;13.38;12.27;;;;;;;;;;5013266;28;20427;-76
2021/07/08 11:27:03;;;;;;;12.93;11.82;;;;;;;;;;5013063;28;20061;-75
2021/07/08 11:29:43;;;;;;;13.70;12.48;;;;;;;;;;5013054;28;20029;-76
2021/07/08 11:32:26;;;;;;;13.55;12.20;;;;;;;;;;5014076;28;20029;-76
2021/07/08 11:34:53;;;;;;;16.17;13.85;;;;;;;;;;5017565;28;20109;-76
2021/07/08 11:37:22;;;;;;;14.25;12.40;;;;;;;;;;5013142;28;20391;-76
2021/07/08 11:39:59;;;;;;;14.05;12.85;;;;;;;;;;5013151;28;20029;-75
2021/07/08 11:42:29;;;;;;;14.20;12.80;;;;;;;;;;4996319;28;20034;-76
2021/07/08 11:44:55;;;;;;;15.18;13.85;;;;;;;;;;5013401;28;20064;-76
2021/07/08 11:47:22;;;;;;;13.35;11.25;;;;;;;;;;5013329;28;20029;-76
2021/07/08 11:49:49;;;;;;;17.60;16.00;;;;;;;;;;4996065;28;20057;-76
2021/07/08 11:52:27;;;;;;;18.50;16.70;;;;;;;;;;5014442;28;20542;-76
2021/07/08 11:54:57;;;;;;;19.13;17.33;;;;;;;;;;5013621;28;20026;-76
2021/07/08 11:57:23;;;;;;;20.42;18.58;;;;;;;;;;5013378;28;20048;-76
2021/07/08 11:59:49;;;;;;;22.55;18.92;;;;;;;;;;5013428;28;20105;-76
2021/07/08 12:02:35;;;;;;;20.98;18.75;;;;;;;;;;5014579;28;20363;-76
2021/07/08 12:05:17;;;;;;;23.42;20.98;;;;;;;;;;5017193;28;20034;-76
2021/07/08 12:07:43;;;;;;;;;;;;;;;;;;5016400;28;20076;-75
2021/07/08 12:10:10;;;;;;;20.98;18.77;;;;;;;;;;5016349;28;19960;-76
2021/07/08 12:12:36;;;;;;;20.83;17.20;;;;;;;;;;5018417;28;20133;-77
2021/07/08 12:15:03;;;;;;;31.20;18.50;;;;;;;;;;5021119;28;20022;-78
2021/07/08 12:17:31;;;;;;;41.25;18.58;;;;;;;;;;5006153;28;20038;-76
2021/07/08 12:20:07;;;;;;;53.97;19.27;;;;;;;;;;5019758;28;20391;-74
2021/07/08 12:22:33;;;;;;;60.85;19.20;;;;;;;;;;4999288;28;20034;-76
2021/07/08 12:24:59;;;;;;;21.55;14.63;;;;;;;;;;5018536;28;20026;-76
2021/07/08 12:27:26;;;;;;;38.15;15.27;;;;;;;;;;5021288;28;20076;-77
2021/07/08 12:29:53;;;;;;;20.48;12.73;;;;;;;;;;5020740;28;20069;-76
2021/07/08 12:32:21;;;;;;;17.77;11.93;;;;;;;;;;5022086;28;20079;-76
2021/07/08 12:34:53;;;;;;;13.68;11.88;;;;;;;;;;5022419;28;20030;-76
2021/07/08 12:37:23;;;;;;;10.68;9.63;;;;;;;;;;5018427;28;20021;-76
2021/07/08 12:40:00;;;;;;;10.60;9.60;;;;;;;;;;5018264;28;20054;-76
2021/07/08 12:42:27;;;;;;;10.30;9.18;;;;;;;;;;5017529;28;20430;-76
2021/07/08 12:44:54;;;;;;;11.90;8.70;;;;;;;;;;5018111;28;20030;-77
2021/07/08 12:47:21;;;;;;;10.35;6.72;;;;;;;;;;5017803;28;20097;-76
2021/07/08 12:49:48;;;;;;;4.95;4.53;;;;;;;;;;5017630;28;20026;-76
2021/07/08 12:52:15;;;;;;;5.68;4.60;;;;;;;;;;5027176;28;20041;-77
2021/07/08 12:54:41;;;;;;;4.63;2.92;;;;;;;;;;5018867;28;20017;-77
2021/07/08 12:57:13;;;;;;;6.13;3.10;;;;;;;;;;5018795;28;20065;-77
2021/07/08 12:59:39;;;;;;;3.70;2.70;;;;;;;;;;5018277;28;20022;-76
2021/07/08 13:02:05;;;;;;;2.92;2.45;;;;;;;;;;5021442;28;20041;-77
2021/07/08 13:04:32;;;;;;;2.40;2.05;;;;;;;;;;5029792;28;20041;-76
2021/07/08 13:06:59;;;;;;;3.60;1.98;;;;;;;;;;5038698;28;20565;-76
2021/07/08 13:09:25;;;;;;;3.08;2.40;;;;;;;;;;5031392;28;20025;-77
2021/07/08 13:11:51;;;;;;;2.30;1.88;;;;;;;;;;5020857;28;20022;-77
2021/07/08 13:14:18;;;;;;;3.88;2.35;;;;;;;;;;5020807;28;20018;-77
2021/07/08 13:17:00;;;;;;;2.50;2.30;;;;;;;;;;5016449;28;20034;-76
2021/07/08 13:19:26;;;;;;;;;;;;;;;;;;4999956;28;20112;-76
2021/07/08 13:21:52;;;;;;;2.15;2.05;;;;;;;;;;5017825;28;19959;-76
2021/07/08 13:24:22;;;;;;;2.30;2.10;;;;;;;;;;5017263;28;20037;-77
2021/07/08 13:26:49;;;;;;;1.95;1.75;;;;;;;;;;5017875;28;20025;-77
2021/07/08 13:29:15;;;;;;;1.55;1.45;;;;;;;;;;5018025;28;20075;-77
2021/07/08 13:31:41;;;;;;;1.90;1.80;;;;;;;;;;5017776;28;20022;-77
2021/07/08 13:34:07;;;;;;;2.88;2.40;;;;;;;;;;5027078;28;20368;-77
2021/07/08 13:36:43;;;;;;;3.05;2.55;;;;;;;;;;5036500;28;20029;-78
2021/07/08 13:39:13;;;;;;;3.35;2.33;;;;;;;;;;5015033;28;20153;-77
2021/07/08 13:41:48;;;;;;;5.13;2.75;;;;;;;;;;4999668;28;20080;-76
2021/07/08 13:44:25;;;;;;;2.83;2.63;;;;;;;;;;4996914;28;20486;-77
2021/07/08 13:46:58;;;;;;;2.90;2.70;;;;;;;;;;4999012;28;20386;-76
2021/07/08 13:49:25;;;;;;;3.55;2.45;;;;;;;;;;5015140;28;20026;-78
2021/07/08 13:51:52;;;;;;;2.30;1.80;;;;;;;;;;5014008;28;20022;-77
2021/07/08 13:54:20;;;;;;;1.95;1.85;;;;;;;;;;5020072;28;20021;-77
2021/07/08 13:56:46;;;;;;;1.58;1.48;;;;;;;;;;5036783;28;20032;-78
2021/07/08 13:59:13;;;;;;;2.15;2.00;;;;;;;;;;5015993;28;20040;-77
2021/07/08 14:01:39;;;;;;;2.33;2.13;;;;;;;;;;5016841;28;20030;-76
2021/07/08 14:04:06;;;;;;;2.28;2.05;;;;;;;;;;5011268;28;20038;-77
2021/07/08 14:06:32;;;;;;;6.22;2.70;;;;;;;;;;5014879;28;20513;-75
2021/07/08 14:08:58;;;;;;;5.03;2.65;;;;;;;;;;5014827;28;20029;-76
2021/07/08 14:11:25;;;;;;;3.92;2.72;;;;;;;;;;5014443;28;20037;-77
2021/07/08 14:13:54;;;;;;;2.95;2.38;;;;;;;;;;5016337;28;20387;-77
2021/07/08 14:16:24;;;;;;;2.20;1.67;;;;;;;;;;5015237;28;20045;-76
2021/07/08 14:18:50;;;;;;;2.17;2.00;;;;;;;;;;5015566;28;20098;-76
2021/07/08 14:21:17;;;;;;;2.03;1.92;;;;;;;;;;5015430;28;20099;-76
2021/07/08 14:23:43;;;;;;;1.63;1.52;;;;;;;;;;5013965;28;20399;-77
2021/07/08 14:26:09;;;;;;;1.75;1.30;;;;;;;;;;5006770;28;20036;-76
2021/07/08 14:28:35;;;;;;;1.52;1.40;;;;;;;;;;5017129;28;20017;-77
2021/07/08 14:31:01;;;;;;;2.65;2.00;;;;;;;;;;5016725;28;20026;-77
2021/07/08 14:33:28;;;;;;;2.03;1.52;;;;;;;;;;5024187;28;20022;-76
2021/07/08 14:35:54;;;;;;;1.13;1.02;;;;;;;;;;5022380;28;20105;-77
2021/07/08 14:38:20;;;;;;;2.28;1.17;;;;;;;;;;4996313;28;20026;-76